sensor_id;sensor_type;location;lat;lon;timestamp;P1;durP1;ratioP1;P2;durP2;ratioP2
8594;SDS011;4335;48.860;9.198;2022-10-24T00:01:15;4.00;;;1.50;;
8594;SDS011;4335;48.860;9.198;2022-10-24T00:03:47;6.07;;;1.70;;
8594;SDS011;4335;48.860;9.198;2022-10-24T00:06:15;2.83;;;1.30;;
8594;SDS011;4335;48.860;9.198;2022-10-24T00:08:43;5.23;;;1.80;;
8594;SDS011;4335;48.860;9.198;2022-10-24T00:11:19;2.17;;;1.40;;
8594;SDS011;4335;48.860;9.198;2022-10-24T00:13:49;4.10;;;1.40;;
8594;SDS011;4335;48.860;9.198;2022-10-24T00:16:17;3.83;;;1.60;;
8594;SDS011;4335;48.860;9.198;2022-10-24T00:18:45;4.63;;;2.00;;
8594;SDS011;4335;48.860;9.198;2022-10-24T00:21:15;5.37;;;1.70;;
8594;SDS011;4335;48.860;9.198;2022-10-24T00:23:43;4.53;;;1.97;;
8594;SDS011;4335;48.860;9.198;2022-10-24T00:26:14;4.10;;;1.70;;
8594;SDS011;4335;48.860;9.198;2022-10-24T00:28:43;4.73;;;1.60;;
8594;SDS011;4335;48.860;9.198;2022-10-24T00:31:17;2.73;;;1.70;;
8594;SDS011;4335;48.860;9.198;2022-10-24T00:33:45;4.47;;;1.67;;
8594;SDS011;4335;48.860;9.198;2022-10-24T00:36:14;6.17;;;3.23;;
8594;SDS011;4335;48.860;9.198;2022-10-24T00:38:42;3.30;;;2.00;;
8594;SDS011;4335;48.860;9.198;2022-10-24T00:41:11;4.10;;;2.20;;
8594;SDS011;4335;48.860;9.198;2022-10-24T00:43:40;3.03;;;2.00;;
8594;SDS011;4335;48.860;9.198;2022-10-24T00:46:12;4.77;;;1.80;;
8594;SDS011;4335;48.860;9.198;2022-10-24T00:48:49;3.80;;;1.80;;
8594;SDS011;4335;48.860;9.198;2022-10-24T00:51:20;4.47;;;1.70;;
8594;SDS011;4335;48.860;9.198;2022-10-24T00:53:55;4.43;;;1.33;;
8594;SDS011;4335;48.860;9.198;2022-10-24T00:56:27;5.00;;;1.50;;
8594;SDS011;4335;48.860;9.198;2022-10-24T00:58:59;5.03;;;1.57;;
8594;SDS011;4335;48.860;9.198;2022-10-24T01:01:29;4.30;;;1.63;;
8594;SDS011;4335;48.860;9.198;2022-10-24T01:04:01;3.50;;;1.60;;
8594;SDS011;4335;48.860;9.198;2022-10-24T01:06:32;5.70;;;1.93;;
8594;SDS011;4335;48.860;9.198;2022-10-24T01:09:14;3.57;;;1.60;;
8594;SDS011;4335;48.860;9.198;2022-10-24T01:11:57;5.20;;;1.70;;
8594;SDS011;4335;48.860;9.198;2022-10-24T01:14:35;3.67;;;1.60;;
8594;SDS011;4335;48.860;9.198;2022-10-24T01:17:12;3.83;;;1.53;;
8594;SDS011;4335;48.860;9.198;2022-10-24T01:22:53;4.10;;;1.40;;
8594;SDS011;4335;48.860;9.198;2022-10-24T01:25:43;4.63;;;2.17;;
8594;SDS011;4335;48.860;9.198;2022-10-24T01:28:18;3.10;;;1.47;;
8594;SDS011;4335;48.860;9.198;2022-10-24T01:30:51;4.17;;;1.90;;
8594;SDS011;4335;48.860;9.198;2022-10-24T01:33:28;3.90;;;1.50;;
8594;SDS011;4335;48.860;9.198;2022-10-24T01:35:59;5.77;;;1.93;;
8594;SDS011;4335;48.860;9.198;2022-10-24T01:38:33;7.03;;;1.83;;
8594;SDS011;4335;48.860;9.198;2022-10-24T01:41:03;5.27;;;2.07;;
8594;SDS011;4335;48.860;9.198;2022-10-24T01:43:33;5.00;;;1.47;;
8594;SDS011;4335;48.860;9.198;2022-10-24T01:46:07;3.53;;;1.40;;
8594;SDS011;4335;48.860;9.198;2022-10-24T01:48:38;4.43;;;1.80;;
8594;SDS011;4335;48.860;9.198;2022-10-24T01:51:13;6.03;;;1.70;;
8594;SDS011;4335;48.860;9.198;2022-10-24T01:53:43;3.30;;;1.90;;
8594;SDS011;4335;48.860;9.198;2022-10-24T01:56:18;6.27;;;1.97;;
8594;SDS011;4335;48.860;9.198;2022-10-24T01:58:45;4.23;;;1.80;;
8594;SDS011;4335;48.860;9.198;2022-10-24T02:01:15;5.83;;;1.70;;
8594;SDS011;4335;48.860;9.198;2022-10-24T02:03:49;3.83;;;1.60;;
8594;SDS011;4335;48.860;9.198;2022-10-24T02:06:22;4.23;;;1.83;;
8594;SDS011;4335;48.860;9.198;2022-10-24T02:08:58;3.73;;;2.00;;
8594;SDS011;4335;48.860;9.198;2022-10-24T02:11:31;4.00;;;2.03;;
8594;SDS011;4335;48.860;9.198;2022-10-24T02:14:02;5.30;;;2.33;;
8594;SDS011;4335;48.860;9.198;2022-10-24T02:16:36;8.93;;;3.00;;
8594;SDS011;4335;48.860;9.198;2022-10-24T02:19:04;5.97;;;2.40;;
8594;SDS011;4335;48.860;9.198;2022-10-24T02:21:33;9.23;;;3.43;;
8594;SDS011;4335;48.860;9.198;2022-10-24T02:24:04;3.80;;;2.40;;
8594;SDS011;4335;48.860;9.198;2022-10-24T02:26:36;5.77;;;2.40;;
8594;SDS011;4335;48.860;9.198;2022-10-24T02:29:14;4.13;;;2.50;;
8594;SDS011;4335;48.860;9.198;2022-10-24T02:31:47;5.10;;;3.00;;
8594;SDS011;4335;48.860;9.198;2022-10-24T02:34:18;5.13;;;2.07;;
8594;SDS011;4335;48.860;9.198;2022-10-24T02:36:48;3.47;;;1.90;;
8594;SDS011;4335;48.860;9.198;2022-10-24T02:39:18;4.67;;;1.80;;
8594;SDS011;4335;48.860;9.198;2022-10-24T02:41:47;6.07;;;2.50;;
8594;SDS011;4335;48.860;9.198;2022-10-24T02:44:17;3.60;;;2.10;;
8594;SDS011;4335;48.860;9.198;2022-10-24T02:46:46;4.57;;;2.50;;
8594;SDS011;4335;48.860;9.198;2022-10-24T02:49:20;8.07;;;2.40;;
8594;SDS011;4335;48.860;9.198;2022-10-24T02:51:47;4.20;;;2.10;;
8594;SDS011;4335;48.860;9.198;2022-10-24T02:54:19;4.77;;;2.23;;
8594;SDS011;4335;48.860;9.198;2022-10-24T02:56:49;4.57;;;1.70;;
8594;SDS011;4335;48.860;9.198;2022-10-24T02:59:18;7.37;;;2.37;;
8594;SDS011;4335;48.860;9.198;2022-10-24T03:01:46;6.40;;;2.23;;
8594;SDS011;4335;48.860;9.198;2022-10-24T03:04:14;5.60;;;1.60;;
8594;SDS011;4335;48.860;9.198;2022-10-24T03:06:42;6.00;;;2.63;;
8594;SDS011;4335;48.860;9.198;2022-10-24T03:09:19;4.37;;;2.47;;
8594;SDS011;4335;48.860;9.198;2022-10-24T03:11:46;6.13;;;2.43;;
8594;SDS011;4335;48.860;9.198;2022-10-24T03:14:14;3.53;;;2.13;;
8594;SDS011;4335;48.860;9.198;2022-10-24T03:16:41;5.73;;;1.97;;
8594;SDS011;4335;48.860;9.198;2022-10-24T03:19:08;6.10;;;2.10;;
8594;SDS011;4335;48.860;9.198;2022-10-24T03:21:37;4.27;;;1.87;;
8594;SDS011;4335;48.860;9.198;2022-10-24T03:24:06;4.63;;;2.20;;
8594;SDS011;4335;48.860;9.198;2022-10-24T03:26:34;5.07;;;2.50;;
8594;SDS011;4335;48.860;9.198;2022-10-24T03:29:01;5.80;;;2.37;;
8594;SDS011;4335;48.860;9.198;2022-10-24T03:31:28;5.97;;;2.10;;
8594;SDS011;4335;48.860;9.198;2022-10-24T03:33:56;4.67;;;2.10;;
8594;SDS011;4335;48.860;9.198;2022-10-24T03:36:24;4.93;;;2.30;;
8594;SDS011;4335;48.860;9.198;2022-10-24T03:38:53;6.50;;;2.53;;
8594;SDS011;4335;48.860;9.198;2022-10-24T03:41:21;4.23;;;2.00;;
8594;SDS011;4335;48.860;9.198;2022-10-24T03:43:50;5.17;;;2.67;;
8594;SDS011;4335;48.860;9.198;2022-10-24T03:46:18;6.00;;;3.37;;
8594;SDS011;4335;48.860;9.198;2022-10-24T03:48:48;6.03;;;2.40;;
8594;SDS011;4335;48.860;9.198;2022-10-24T03:51:19;5.80;;;3.60;;
8594;SDS011;4335;48.860;9.198;2022-10-24T03:53:46;4.60;;;2.83;;
8594;SDS011;4335;48.860;9.198;2022-10-24T03:56:18;5.43;;;2.70;;
8594;SDS011;4335;48.860;9.198;2022-10-24T03:58:45;7.13;;;2.90;;
8594;SDS011;4335;48.860;9.198;2022-10-24T04:01:12;5.17;;;2.73;;
8594;SDS011;4335;48.860;9.198;2022-10-24T04:03:42;5.20;;;2.30;;
8594;SDS011;4335;48.860;9.198;2022-10-24T04:06:12;6.73;;;2.60;;
8594;SDS011;4335;48.860;9.198;2022-10-24T04:08:40;7.80;;;2.90;;
8594;SDS011;4335;48.860;9.198;2022-10-24T04:11:07;7.97;;;3.17;;
8594;SDS011;4335;48.860;9.198;2022-10-24T04:13:36;5.87;;;2.93;;
8594;SDS011;4335;48.860;9.198;2022-10-24T04:16:05;15.00;;;6.03;;
8594;SDS011;4335;48.860;9.198;2022-10-24T04:18:33;9.57;;;4.00;;
8594;SDS011;4335;48.860;9.198;2022-10-24T04:21:00;7.53;;;3.17;;
8594;SDS011;4335;48.860;9.198;2022-10-24T04:23:28;5.63;;;3.03;;
8594;SDS011;4335;48.860;9.198;2022-10-24T04:26:02;11.83;;;3.30;;
8594;SDS011;4335;48.860;9.198;2022-10-24T04:28:29;9.03;;;3.43;;
8594;SDS011;4335;48.860;9.198;2022-10-24T04:30:58;4.60;;;2.60;;
8594;SDS011;4335;48.860;9.198;2022-10-24T04:33:25;6.30;;;2.87;;
8594;SDS011;4335;48.860;9.198;2022-10-24T04:35:52;5.90;;;2.63;;
8594;SDS011;4335;48.860;9.198;2022-10-24T04:38:20;13.83;;;3.47;;
8594;SDS011;4335;48.860;9.198;2022-10-24T04:40:47;8.07;;;2.80;;
8594;SDS011;4335;48.860;9.198;2022-10-24T04:43:16;9.00;;;2.93;;
8594;SDS011;4335;48.860;9.198;2022-10-24T04:45:45;7.93;;;2.83;;
8594;SDS011;4335;48.860;9.198;2022-10-24T04:48:16;5.97;;;3.03;;
8594;SDS011;4335;48.860;9.198;2022-10-24T04:50:44;10.63;;;3.53;;
8594;SDS011;4335;48.860;9.198;2022-10-24T04:53:15;8.33;;;3.37;;
8594;SDS011;4335;48.860;9.198;2022-10-24T04:55:43;6.37;;;3.00;;
8594;SDS011;4335;48.860;9.198;2022-10-24T04:58:10;7.43;;;2.93;;
8594;SDS011;4335;48.860;9.198;2022-10-24T05:00:38;6.00;;;2.53;;
8594;SDS011;4335;48.860;9.198;2022-10-24T05:03:10;6.03;;;3.30;;
8594;SDS011;4335;48.860;9.198;2022-10-24T05:05:39;8.60;;;3.50;;
8594;SDS011;4335;48.860;9.198;2022-10-24T05:08:07;8.00;;;2.67;;
8594;SDS011;4335;48.860;9.198;2022-10-24T05:10:34;6.30;;;2.87;;
8594;SDS011;4335;48.860;9.198;2022-10-24T05:13:01;6.50;;;2.63;;
8594;SDS011;4335;48.860;9.198;2022-10-24T05:15:29;5.17;;;2.83;;
8594;SDS011;4335;48.860;9.198;2022-10-24T05:17:57;6.40;;;2.90;;
8594;SDS011;4335;48.860;9.198;2022-10-24T05:20:24;6.90;;;3.13;;
8594;SDS011;4335;48.860;9.198;2022-10-24T05:22:53;7.40;;;3.30;;
8594;SDS011;4335;48.860;9.198;2022-10-24T05:25:24;8.47;;;2.80;;
8594;SDS011;4335;48.860;9.198;2022-10-24T05:27:52;10.47;;;3.30;;
8594;SDS011;4335;48.860;9.198;2022-10-24T05:30:22;7.73;;;2.80;;
8594;SDS011;4335;48.860;9.198;2022-10-24T05:32:49;6.33;;;2.73;;
8594;SDS011;4335;48.860;9.198;2022-10-24T05:35:17;7.77;;;3.67;;
8594;SDS011;4335;48.860;9.198;2022-10-24T05:37:47;6.40;;;2.70;;
8594;SDS011;4335;48.860;9.198;2022-10-24T05:40:16;7.23;;;3.00;;
8594;SDS011;4335;48.860;9.198;2022-10-24T05:42:44;4.77;;;2.47;;
8594;SDS011;4335;48.860;9.198;2022-10-24T05:45:14;4.43;;;2.30;;
8594;SDS011;4335;48.860;9.198;2022-10-24T05:47:42;6.87;;;2.73;;
8594;SDS011;4335;48.860;9.198;2022-10-24T05:50:09;7.13;;;2.83;;
8594;SDS011;4335;48.860;9.198;2022-10-24T05:52:38;10.37;;;3.37;;
8594;SDS011;4335;48.860;9.198;2022-10-24T05:55:07;6.53;;;3.27;;
8594;SDS011;4335;48.860;9.198;2022-10-24T05:57:40;4.53;;;2.93;;
8594;SDS011;4335;48.860;9.198;2022-10-24T06:00:08;8.73;;;2.97;;
8594;SDS011;4335;48.860;9.198;2022-10-24T06:02:39;5.67;;;2.60;;
8594;SDS011;4335;48.860;9.198;2022-10-24T06:05:07;7.30;;;3.37;;
8594;SDS011;4335;48.860;9.198;2022-10-24T06:07:35;6.77;;;2.30;;
8594;SDS011;4335;48.860;9.198;2022-10-24T06:10:03;8.13;;;2.73;;
8594;SDS011;4335;48.860;9.198;2022-10-24T06:12:34;8.60;;;2.80;;
8594;SDS011;4335;48.860;9.198;2022-10-24T06:15:07;5.97;;;2.70;;
8594;SDS011;4335;48.860;9.198;2022-10-24T06:17:38;5.63;;;2.77;;
8594;SDS011;4335;48.860;9.198;2022-10-24T06:20:09;4.90;;;2.50;;
8594;SDS011;4335;48.860;9.198;2022-10-24T06:22:36;5.00;;;2.83;;
8594;SDS011;4335;48.860;9.198;2022-10-24T06:25:04;4.93;;;2.77;;
8594;SDS011;4335;48.860;9.198;2022-10-24T06:27:32;10.27;;;4.63;;
8594;SDS011;4335;48.860;9.198;2022-10-24T06:30:04;8.10;;;2.53;;
8594;SDS011;4335;48.860;9.198;2022-10-24T06:32:34;4.80;;;2.13;;
8594;SDS011;4335;48.860;9.198;2022-10-24T06:35:08;8.10;;;3.17;;
8594;SDS011;4335;48.860;9.198;2022-10-24T06:37:37;6.70;;;2.83;;
8594;SDS011;4335;48.860;9.198;2022-10-24T06:40:05;5.00;;;2.77;;
8594;SDS011;4335;48.860;9.198;2022-10-24T06:42:38;4.97;;;2.47;;
8594;SDS011;4335;48.860;9.198;2022-10-24T06:45:05;6.27;;;2.80;;
8594;SDS011;4335;48.860;9.198;2022-10-24T06:47:33;6.10;;;2.90;;
8594;SDS011;4335;48.860;9.198;2022-10-24T06:50:07;4.80;;;2.83;;
8594;SDS011;4335;48.860;9.198;2022-10-24T06:52:35;11.57;;;3.60;;
8594;SDS011;4335;48.860;9.198;2022-10-24T06:55:03;8.90;;;3.07;;
8594;SDS011;4335;48.860;9.198;2022-10-24T06:57:31;6.23;;;3.30;;
8594;SDS011;4335;48.860;9.198;2022-10-24T07:00:00;6.03;;;2.40;;
8594;SDS011;4335;48.860;9.198;2022-10-24T07:02:27;9.60;;;2.73;;
8594;SDS011;4335;48.860;9.198;2022-10-24T07:04:58;5.53;;;3.00;;
8594;SDS011;4335;48.860;9.198;2022-10-24T07:07:28;4.67;;;2.37;;
8594;SDS011;4335;48.860;9.198;2022-10-24T07:09:56;7.13;;;2.60;;
8594;SDS011;4335;48.860;9.198;2022-10-24T07:12:23;9.80;;;3.80;;
8594;SDS011;4335;48.860;9.198;2022-10-24T07:14:51;7.03;;;3.70;;
8594;SDS011;4335;48.860;9.198;2022-10-24T07:17:23;6.63;;;3.23;;
8594;SDS011;4335;48.860;9.198;2022-10-24T07:19:51;6.57;;;2.67;;
8594;SDS011;4335;48.860;9.198;2022-10-24T07:22:22;9.70;;;2.73;;
8594;SDS011;4335;48.860;9.198;2022-10-24T07:24:51;7.93;;;3.30;;
8594;SDS011;4335;48.860;9.198;2022-10-24T07:27:25;8.83;;;3.27;;
8594;SDS011;4335;48.860;9.198;2022-10-24T07:29:58;5.00;;;2.60;;
8594;SDS011;4335;48.860;9.198;2022-10-24T07:32:30;9.97;;;3.70;;
8594;SDS011;4335;48.860;9.198;2022-10-24T07:34:58;3.90;;;2.20;;
8594;SDS011;4335;48.860;9.198;2022-10-24T07:37:28;3.63;;;2.83;;
8594;SDS011;4335;48.860;9.198;2022-10-24T07:39:59;7.00;;;3.10;;
8594;SDS011;4335;48.860;9.198;2022-10-24T07:42:26;9.80;;;4.47;;
8594;SDS011;4335;48.860;9.198;2022-10-24T07:44:58;5.53;;;3.07;;
8594;SDS011;4335;48.860;9.198;2022-10-24T07:47:26;12.73;;;3.37;;
8594;SDS011;4335;48.860;9.198;2022-10-24T07:50:01;7.33;;;3.20;;
8594;SDS011;4335;48.860;9.198;2022-10-24T07:52:28;7.30;;;3.53;;
8594;SDS011;4335;48.860;9.198;2022-10-24T07:54:56;6.30;;;3.30;;
8594;SDS011;4335;48.860;9.198;2022-10-24T07:57:23;8.17;;;3.67;;
8594;SDS011;4335;48.860;9.198;2022-10-24T07:59:51;9.60;;;4.00;;
8594;SDS011;4335;48.860;9.198;2022-10-24T08:02:18;7.93;;;3.40;;
8594;SDS011;4335;48.860;9.198;2022-10-24T08:04:45;9.43;;;3.00;;
8594;SDS011;4335;48.860;9.198;2022-10-24T08:07:15;7.23;;;3.70;;
8594;SDS011;4335;48.860;9.198;2022-10-24T08:09:44;6.73;;;3.80;;
8594;SDS011;4335;48.860;9.198;2022-10-24T08:12:15;10.97;;;4.00;;
8594;SDS011;4335;48.860;9.198;2022-10-24T08:14:42;5.63;;;2.83;;
8594;SDS011;4335;48.860;9.198;2022-10-24T08:17:10;6.60;;;3.30;;
8594;SDS011;4335;48.860;9.198;2022-10-24T08:19:37;6.33;;;3.43;;
8594;SDS011;4335;48.860;9.198;2022-10-24T08:22:09;9.80;;;3.07;;
8594;SDS011;4335;48.860;9.198;2022-10-24T08:24:38;10.67;;;2.97;;
8594;SDS011;4335;48.860;9.198;2022-10-24T08:27:10;7.90;;;3.53;;
8594;SDS011;4335;48.860;9.198;2022-10-24T08:29:38;9.30;;;3.57;;
8594;SDS011;4335;48.860;9.198;2022-10-24T08:32:05;9.37;;;3.57;;
8594;SDS011;4335;48.860;9.198;2022-10-24T08:34:38;7.40;;;2.97;;
8594;SDS011;4335;48.860;9.198;2022-10-24T08:37:06;7.43;;;2.70;;
8594;SDS011;4335;48.860;9.198;2022-10-24T08:39:33;5.50;;;3.33;;
8594;SDS011;4335;48.860;9.198;2022-10-24T08:45:09;6.03;;;3.07;;
8594;SDS011;4335;48.860;9.198;2022-10-24T08:48:02;8.03;;;2.80;;
8594;SDS011;4335;48.860;9.198;2022-10-24T08:50:33;6.63;;;2.70;;
8594;SDS011;4335;48.860;9.198;2022-10-24T08:53:02;8.00;;;2.40;;
8594;SDS011;4335;48.860;9.198;2022-10-24T08:55:39;4.83;;;2.20;;
8594;SDS011;4335;48.860;9.198;2022-10-24T08:58:15;5.17;;;2.30;;
8594;SDS011;4335;48.860;9.198;2022-10-24T09:00:46;7.33;;;2.50;;
8594;SDS011;4335;48.860;9.198;2022-10-24T09:03:17;5.00;;;2.70;;
8594;SDS011;4335;48.860;9.198;2022-10-24T09:05:51;5.63;;;2.77;;
8594;SDS011;4335;48.860;9.198;2022-10-24T09:08:23;7.77;;;2.33;;
8594;SDS011;4335;48.860;9.198;2022-10-24T09:10:59;6.33;;;2.60;;
8594;SDS011;4335;48.860;9.198;2022-10-24T09:13:30;5.80;;;3.03;;
8594;SDS011;4335;48.860;9.198;2022-10-24T09:15:59;8.07;;;2.90;;
8594;SDS011;4335;48.860;9.198;2022-10-24T09:18:28;6.20;;;3.60;;
8594;SDS011;4335;48.860;9.198;2022-10-24T09:20:58;3.83;;;2.30;;
8594;SDS011;4335;48.860;9.198;2022-10-24T09:23:27;8.17;;;2.80;;
8594;SDS011;4335;48.860;9.198;2022-10-24T09:25:59;7.70;;;2.30;;
8594;SDS011;4335;48.860;9.198;2022-10-24T09:28:30;6.57;;;2.07;;
8594;SDS011;4335;48.860;9.198;2022-10-24T09:31:01;4.53;;;2.27;;
8594;SDS011;4335;48.860;9.198;2022-10-24T09:33:30;3.50;;;2.43;;
8594;SDS011;4335;48.860;9.198;2022-10-24T09:36:01;5.40;;;3.00;;
8594;SDS011;4335;48.860;9.198;2022-10-24T09:38:31;7.97;;;2.27;;
8594;SDS011;4335;48.860;9.198;2022-10-24T09:41:00;4.70;;;2.23;;
8594;SDS011;4335;48.860;9.198;2022-10-24T09:43:33;4.23;;;2.03;;
8594;SDS011;4335;48.860;9.198;2022-10-24T09:46:05;6.13;;;2.33;;
8594;SDS011;4335;48.860;9.198;2022-10-24T09:48:43;5.10;;;2.23;;
8594;SDS011;4335;48.860;9.198;2022-10-24T09:51:21;5.40;;;2.57;;
8594;SDS011;4335;48.860;9.198;2022-10-24T09:56:55;4.03;;;2.17;;
8594;SDS011;4335;48.860;9.198;2022-10-24T09:59:33;4.43;;;2.60;;
8594;SDS011;4335;48.860;9.198;2022-10-24T10:05:18;4.63;;;2.97;;
8594;SDS011;4335;48.860;9.198;2022-10-24T10:07:46;6.00;;;2.80;;
8594;SDS011;4335;48.860;9.198;2022-10-24T10:10:23;7.57;;;3.40;;
8594;SDS011;4335;48.860;9.198;2022-10-24T10:12:56;8.37;;;2.93;;
8594;SDS011;4335;48.860;9.198;2022-10-24T10:15:33;6.30;;;3.37;;
8594;SDS011;4335;48.860;9.198;2022-10-24T10:18:04;5.82;;;3.05;;
8594;SDS011;4335;48.860;9.198;2022-10-24T10:20:56;7.40;;;3.27;;
8594;SDS011;4335;48.860;9.198;2022-10-24T10:23:42;8.43;;;3.33;;
8594;SDS011;4335;48.860;9.198;2022-10-24T10:26:21;8.13;;;3.07;;
8594;SDS011;4335;48.860;9.198;2022-10-24T10:28:58;6.93;;;3.40;;
8594;SDS011;4335;48.860;9.198;2022-10-24T10:31:32;5.50;;;3.10;;
8594;SDS011;4335;48.860;9.198;2022-10-24T10:34:15;7.60;;;3.30;;
8594;SDS011;4335;48.860;9.198;2022-10-24T10:36:55;6.77;;;2.93;;
8594;SDS011;4335;48.860;9.198;2022-10-24T10:42:49;7.97;;;3.20;;
8594;SDS011;4335;48.860;9.198;2022-10-24T10:45:30;7.13;;;4.10;;
8594;SDS011;4335;48.860;9.198;2022-10-24T10:48:03;6.23;;;3.57;;
8594;SDS011;4335;48.860;9.198;2022-10-24T10:50:40;6.83;;;2.60;;
8594;SDS011;4335;48.860;9.198;2022-10-24T10:53:24;5.30;;;2.67;;
8594;SDS011;4335;48.860;9.198;2022-10-24T10:56:07;5.80;;;2.00;;
8594;SDS011;4335;48.860;9.198;2022-10-24T10:58:47;4.30;;;2.20;;
8594;SDS011;4335;48.860;9.198;2022-10-24T11:01:29;5.33;;;2.93;;
8594;SDS011;4335;48.860;9.198;2022-10-24T11:04:11;4.90;;;2.77;;
8594;SDS011;4335;48.860;9.198;2022-10-24T11:06:50;5.90;;;2.50;;
8594;SDS011;4335;48.860;9.198;2022-10-24T11:09:26;4.07;;;1.97;;
8594;SDS011;4335;48.860;9.198;2022-10-24T11:12:03;3.33;;;2.37;;
8594;SDS011;4335;48.860;9.198;2022-10-24T11:14:38;3.83;;;1.90;;
8594;SDS011;4335;48.860;9.198;2022-10-24T11:17:10;3.07;;;1.93;;
8594;SDS011;4335;48.860;9.198;2022-10-24T11:19:46;4.70;;;2.27;;
8594;SDS011;4335;48.860;9.198;2022-10-24T11:22:21;4.57;;;2.47;;
8594;SDS011;4335;48.860;9.198;2022-10-24T11:24:53;2.97;;;1.90;;
8594;SDS011;4335;48.860;9.198;2022-10-24T11:27:26;3.83;;;2.07;;
8594;SDS011;4335;48.860;9.198;2022-10-24T11:30:03;3.50;;;1.70;;
8594;SDS011;4335;48.860;9.198;2022-10-24T11:32:43;2.83;;;1.70;;
8594;SDS011;4335;48.860;9.198;2022-10-24T11:35:21;2.47;;;1.87;;
8594;SDS011;4335;48.860;9.198;2022-10-24T11:37:54;2.27;;;1.43;;
8594;SDS011;4335;48.860;9.198;2022-10-24T11:40:23;3.57;;;1.77;;
8594;SDS011;4335;48.860;9.198;2022-10-24T11:42:55;4.07;;;2.30;;
8594;SDS011;4335;48.860;9.198;2022-10-24T11:45:32;2.97;;;2.00;;
8594;SDS011;4335;48.860;9.198;2022-10-24T11:48:11;3.07;;;2.03;;
8594;SDS011;4335;48.860;9.198;2022-10-24T11:50:50;4.30;;;1.83;;
8594;SDS011;4335;48.860;9.198;2022-10-24T11:56:14;2.33;;;1.60;;
8594;SDS011;4335;48.860;9.198;2022-10-24T11:58:53;3.77;;;1.73;;
8594;SDS011;4335;48.860;9.198;2022-10-24T12:01:33;2.90;;;1.70;;
8594;SDS011;4335;48.860;9.198;2022-10-24T12:10:30;2.90;;;1.80;;
8594;SDS011;4335;48.860;9.198;2022-10-24T12:16:27;4.40;;;1.97;;
8594;SDS011;4335;48.860;9.198;2022-10-24T12:19:09;3.57;;;1.70;;
8594;SDS011;4335;48.860;9.198;2022-10-24T12:21:40;7.03;;;3.27;;
8594;SDS011;4335;48.860;9.198;2022-10-24T12:24:25;3.30;;;1.90;;
8594;SDS011;4335;48.860;9.198;2022-10-24T12:26:57;4.93;;;1.87;;
8594;SDS011;4335;48.860;9.198;2022-10-24T12:29:27;3.27;;;1.60;;
8594;SDS011;4335;48.860;9.198;2022-10-24T12:31:58;3.33;;;2.40;;
8594;SDS011;4335;48.860;9.198;2022-10-24T12:34:55;2.63;;;1.67;;
8594;SDS011;4335;48.860;9.198;2022-10-24T12:37:34;3.73;;;1.70;;
8594;SDS011;4335;48.860;9.198;2022-10-24T12:43:12;5.13;;;1.97;;
8594;SDS011;4335;48.860;9.198;2022-10-24T12:45:44;2.57;;;2.10;;
8594;SDS011;4335;48.860;9.198;2022-10-24T12:48:28;4.07;;;2.23;;
8594;SDS011;4335;48.860;9.198;2022-10-24T12:51:03;3.80;;;2.37;;
8594;SDS011;4335;48.860;9.198;2022-10-24T12:53:58;3.40;;;1.60;;
8594;SDS011;4335;48.860;9.198;2022-10-24T12:56:28;4.20;;;1.40;;
8594;SDS011;4335;48.860;9.198;2022-10-24T12:59:02;6.00;;;1.67;;
8594;SDS011;4335;48.860;9.198;2022-10-24T13:01:42;4.37;;;1.60;;
8594;SDS011;4335;48.860;9.198;2022-10-24T13:07:19;3.00;;;1.60;;
8594;SDS011;4335;48.860;9.198;2022-10-24T13:10:14;3.83;;;2.03;;
8594;SDS011;4335;48.860;9.198;2022-10-24T13:12:58;2.93;;;1.67;;
8594;SDS011;4335;48.860;9.198;2022-10-24T13:15:42;2.37;;;1.83;;
8594;SDS011;4335;48.860;9.198;2022-10-24T13:18:15;5.23;;;1.80;;
8594;SDS011;4335;48.860;9.198;2022-10-24T13:21:05;4.30;;;2.10;;
8594;SDS011;4335;48.860;9.198;2022-10-24T13:23:40;1.93;;;1.80;;
8594;SDS011;4335;48.860;9.198;2022-10-24T13:26:26;3.43;;;1.70;;
8594;SDS011;4335;48.860;9.198;2022-10-24T13:29:02;5.47;;;2.80;;
8594;SDS011;4335;48.860;9.198;2022-10-24T13:31:46;3.30;;;1.57;;
8594;SDS011;4335;48.860;9.198;2022-10-24T13:34:18;2.60;;;1.33;;
8594;SDS011;4335;48.860;9.198;2022-10-24T13:36:55;5.30;;;1.77;;
8594;SDS011;4335;48.860;9.198;2022-10-24T13:39:38;4.03;;;2.10;;
8594;SDS011;4335;48.860;9.198;2022-10-24T13:42:18;4.27;;;2.87;;
8594;SDS011;4335;48.860;9.198;2022-10-24T13:44:50;2.37;;;1.80;;
8594;SDS011;4335;48.860;9.198;2022-10-24T13:47:22;5.53;;;2.00;;
8594;SDS011;4335;48.860;9.198;2022-10-24T13:49:57;3.73;;;1.90;;
8594;SDS011;4335;48.860;9.198;2022-10-24T13:52:31;4.10;;;1.80;;
8594;SDS011;4335;48.860;9.198;2022-10-24T13:55:11;2.87;;;1.90;;
8594;SDS011;4335;48.860;9.198;2022-10-24T13:57:51;5.73;;;2.40;;
8594;SDS011;4335;48.860;9.198;2022-10-24T14:00:21;4.30;;;1.90;;
8594;SDS011;4335;48.860;9.198;2022-10-24T14:02:51;2.10;;;1.60;;
8594;SDS011;4335;48.860;9.198;2022-10-24T14:08:13;2.30;;;1.70;;
8594;SDS011;4335;48.860;9.198;2022-10-24T14:10:51;3.37;;;1.87;;
8594;SDS011;4335;48.860;9.198;2022-10-24T14:13:20;2.43;;;1.60;;
8594;SDS011;4335;48.860;9.198;2022-10-24T14:15:50;3.97;;;1.80;;
8594;SDS011;4335;48.860;9.198;2022-10-24T14:18:21;2.73;;;1.70;;
8594;SDS011;4335;48.860;9.198;2022-10-24T14:20:50;1.73;;;1.47;;
8594;SDS011;4335;48.860;9.198;2022-10-24T14:23:25;2.63;;;2.00;;
8594;SDS011;4335;48.860;9.198;2022-10-24T14:25:55;2.87;;;1.70;;
8594;SDS011;4335;48.860;9.198;2022-10-24T14:28:25;2.70;;;1.50;;
8594;SDS011;4335;48.860;9.198;2022-10-24T14:30:55;4.50;;;1.77;;
8594;SDS011;4335;48.860;9.198;2022-10-24T14:33:28;2.53;;;1.87;;
8594;SDS011;4335;48.860;9.198;2022-10-24T14:35:56;3.17;;;1.60;;
8594;SDS011;4335;48.860;9.198;2022-10-24T14:38:25;2.67;;;1.40;;
8594;SDS011;4335;48.860;9.198;2022-10-24T14:40:53;2.67;;;1.70;;
8594;SDS011;4335;48.860;9.198;2022-10-24T14:43:23;4.63;;;1.70;;
8594;SDS011;4335;48.860;9.198;2022-10-24T14:46:04;1.50;;;1.40;;
8594;SDS011;4335;48.860;9.198;2022-10-24T14:48:53;4.57;;;2.07;;
8594;SDS011;4335;48.860;9.198;2022-10-24T14:51:23;3.93;;;1.90;;
8594;SDS011;4335;48.860;9.198;2022-10-24T14:53:53;3.23;;;2.00;;
8594;SDS011;4335;48.860;9.198;2022-10-24T14:56:26;2.93;;;1.87;;
8594;SDS011;4335;48.860;9.198;2022-10-24T14:58:57;2.53;;;1.80;;
8594;SDS011;4335;48.860;9.198;2022-10-24T15:01:27;3.23;;;1.77;;
8594;SDS011;4335;48.860;9.198;2022-10-24T15:03:57;3.00;;;2.23;;
8594;SDS011;4335;48.860;9.198;2022-10-24T15:06:35;4.17;;;2.20;;
8594;SDS011;4335;48.860;9.198;2022-10-24T15:09:04;3.93;;;1.80;;
8594;SDS011;4335;48.860;9.198;2022-10-24T15:11:41;2.57;;;1.63;;
8594;SDS011;4335;48.860;9.198;2022-10-24T15:17:03;1.93;;;1.70;;
8594;SDS011;4335;48.860;9.198;2022-10-24T15:19:55;3.40;;;2.20;;
8594;SDS011;4335;48.860;9.198;2022-10-24T15:22:26;3.63;;;2.03;;
8594;SDS011;4335;48.860;9.198;2022-10-24T15:24:56;5.07;;;2.10;;
8594;SDS011;4335;48.860;9.198;2022-10-24T15:27:29;3.30;;;1.73;;
8594;SDS011;4335;48.860;9.198;2022-10-24T15:30:03;2.73;;;1.50;;
8594;SDS011;4335;48.860;9.198;2022-10-24T15:32:31;4.53;;;1.90;;
8594;SDS011;4335;48.860;9.198;2022-10-24T15:35:03;2.63;;;1.43;;
8594;SDS011;4335;48.860;9.198;2022-10-24T15:37:30;2.70;;;1.60;;
8594;SDS011;4335;48.860;9.198;2022-10-24T15:40:02;3.37;;;1.57;;
8594;SDS011;4335;48.860;9.198;2022-10-24T15:42:30;5.10;;;1.93;;
8594;SDS011;4335;48.860;9.198;2022-10-24T15:44:58;6.53;;;1.60;;
8594;SDS011;4335;48.860;9.198;2022-10-24T15:47:26;2.13;;;1.60;;
8594;SDS011;4335;48.860;9.198;2022-10-24T15:49:54;4.07;;;2.03;;
8594;SDS011;4335;48.860;9.198;2022-10-24T15:52:23;3.00;;;2.03;;
8594;SDS011;4335;48.860;9.198;2022-10-24T15:54:50;2.47;;;1.73;;
8594;SDS011;4335;48.860;9.198;2022-10-24T15:57:18;2.63;;;1.73;;
8594;SDS011;4335;48.860;9.198;2022-10-24T15:59:45;3.63;;;1.70;;
8594;SDS011;4335;48.860;9.198;2022-10-24T16:02:17;3.00;;;1.80;;
8594;SDS011;4335;48.860;9.198;2022-10-24T16:04:48;2.40;;;1.63;;
8594;SDS011;4335;48.860;9.198;2022-10-24T16:07:15;1.90;;;1.57;;
8594;SDS011;4335;48.860;9.198;2022-10-24T16:09:45;3.30;;;1.93;;
8594;SDS011;4335;48.860;9.198;2022-10-24T16:12:12;4.07;;;1.90;;
8594;SDS011;4335;48.860;9.198;2022-10-24T16:14:45;3.43;;;2.27;;
8594;SDS011;4335;48.860;9.198;2022-10-24T16:17:16;3.97;;;2.03;;
8594;SDS011;4335;48.860;9.198;2022-10-24T16:19:43;3.57;;;2.13;;
8594;SDS011;4335;48.860;9.198;2022-10-24T16:22:10;3.90;;;2.33;;
8594;SDS011;4335;48.860;9.198;2022-10-24T16:24:38;5.87;;;4.20;;